Hlavní strana
METAR-TAF:

METAR-TAF

Letiště :

Wilmington, Severní Karolína, Spojené státy americké

zeměpisná šířka: 34-16-14N, zeměpisná délka: 077-54-09W, výška: 10 m

Aktuální stav počasí

Zpráva byla vytvořena před 12 minutami, v 17:53 UTC
vítr z různých směrů 4 kt
Teplota 32°C
Vlhkost vzduchu 43%
Tlak 1014 hPa
Viditelnost: 16.1 km
Jasno

METAR: KILM 031753Z VRB04KT 10SM CLR 32/18 A2993 RMK AO2 SLP133 T03220178 10328 20244 58004

Čas: 14:05 (18:05 UTC)

Předpověď počasí

Zpráva byla vytvořena před 37 minutami, v 17:28 UTC
Předpověď platná od 03 v 18 UTC do 04 v 18 UTC
Severní vítr 8 kt
Viditelnost: 10 km
Polojasno ve výšce 4500 ft
Od 04 v 0000 UTC
Jižní vítr 6 kt
Viditelnost: 10 km
Polojasno ve výšce 6000 ft
Od 04 v 0600 UTC
Západojihozápadní vítr 4 kt
Viditelnost: 10 km
Skoro jasno ve výšce 10000 ft

TAF: KILM 031728Z 0318/0418 01008KT P6SM SCT045 FM040000 19006KT P6SM SCT060 FM040600 25004KT P6SM FEW100

Stav a předpovědi počasí z více než 4 000 letišť (zprávy METAR a TAF).

Červené a žluté tečky na mapě představují dostupné meteorologické stanice.

Když kurzor umístíte na tečku, zobrazí se název stanice.

Pak kliknutím zobrazíte stav a předpověď počasí.

Chcete-li změnit mapu, kliknutím na zelené tlačítko se znaménkem +mapu přiblížíte, kliknutím na zelené tlačítko se znaménkem – mapu oddálíte a kliknutím na zelené šipky přejdete na sousední mapy.


METAR-TAF: